sensor_id;sensor_type;location;lat;lon;timestamp;temperature;humidity
11055;DHT22;5580;50.106;8.702;2023-04-24T00:01:39;14.80;99.90
11055;DHT22;5580;50.106;8.702;2023-04-24T00:04:05;14.80;99.90
11055;DHT22;5580;50.106;8.702;2023-04-24T00:06:32;14.80;99.90
11055;DHT22;5580;50.106;8.702;2023-04-24T00:09:02;14.70;99.90
11055;DHT22;5580;50.106;8.702;2023-04-24T00:11:29;14.70;99.90
11055;DHT22;5580;50.106;8.702;2023-04-24T00:13:55;14.70;99.90
11055;DHT22;5580;50.106;8.702;2023-04-24T00:16:21;14.70;99.90
11055;DHT22;5580;50.106;8.702;2023-04-24T00:18:46;14.60;99.90
11055;DHT22;5580;50.106;8.702;2023-04-24T00:21:13;14.60;99.90
11055;DHT22;5580;50.106;8.702;2023-04-24T00:23:39;14.60;99.90
11055;DHT22;5580;50.106;8.702;2023-04-24T00:26:04;14.60;99.90
11055;DHT22;5580;50.106;8.702;2023-04-24T00:28:30;14.60;99.90
11055;DHT22;5580;50.106;8.702;2023-04-24T00:30:55;14.50;99.90
11055;DHT22;5580;50.106;8.702;2023-04-24T00:33:21;14.50;99.90
11055;DHT22;5580;50.106;8.702;2023-04-24T00:35:46;14.50;99.90
11055;DHT22;5580;50.106;8.702;2023-04-24T00:38:12;14.50;99.90
11055;DHT22;5580;50.106;8.702;2023-04-24T00:40:38;14.50;99.90
11055;DHT22;5580;50.106;8.702;2023-04-24T00:43:03;14.50;99.90
11055;DHT22;5580;50.106;8.702;2023-04-24T00:45:29;14.50;99.90
11055;DHT22;5580;50.106;8.702;2023-04-24T00:47:56;14.40;99.90
11055;DHT22;5580;50.106;8.702;2023-04-24T00:50:23;14.40;99.90
11055;DHT22;5580;50.106;8.702;2023-04-24T00:52:49;14.40;99.90
11055;DHT22;5580;50.106;8.702;2023-04-24T00:55:15;14.40;99.90
11055;DHT22;5580;50.106;8.702;2023-04-24T00:57:41;14.30;99.90
11055;DHT22;5580;50.106;8.702;2023-04-24T01:00:07;14.30;99.90
11055;DHT22;5580;50.106;8.702;2023-04-24T01:02:39;14.30;99.90
11055;DHT22;5580;50.106;8.702;2023-04-24T01:05:07;14.30;99.90
11055;DHT22;5580;50.106;8.702;2023-04-24T01:07:34;14.30;99.90
11055;DHT22;5580;50.106;8.702;2023-04-24T01:09:59;14.30;99.90
11055;DHT22;5580;50.106;8.702;2023-04-24T01:12:25;14.30;99.90
11055;DHT22;5580;50.106;8.702;2023-04-24T01:14:51;14.30;99.90
11055;DHT22;5580;50.106;8.702;2023-04-24T01:17:16;14.30;99.90
11055;DHT22;5580;50.106;8.702;2023-04-24T01:19:42;14.30;99.90
11055;DHT22;5580;50.106;8.702;2023-04-24T01:22:16;14.30;99.90
11055;DHT22;5580;50.106;8.702;2023-04-24T01:24:42;14.30;99.90
11055;DHT22;5580;50.106;8.702;2023-04-24T01:27:11;14.30;99.90
11055;DHT22;5580;50.106;8.702;2023-04-24T01:29:37;14.20;99.90
11055;DHT22;5580;50.106;8.702;2023-04-24T01:32:04;14.20;99.90
11055;DHT22;5580;50.106;8.702;2023-04-24T01:34:30;14.10;99.90
11055;DHT22;5580;50.106;8.702;2023-04-24T01:36:55;14.10;99.90
11055;DHT22;5580;50.106;8.702;2023-04-24T01:39:22;14.10;99.90
11055;DHT22;5580;50.106;8.702;2023-04-24T01:41:48;14.10;99.90
11055;DHT22;5580;50.106;8.702;2023-04-24T01:44:15;14.10;99.90
11055;DHT22;5580;50.106;8.702;2023-04-24T01:46:41;14.10;99.90
11055;DHT22;5580;50.106;8.702;2023-04-24T01:49:07;14.10;99.90
11055;DHT22;5580;50.106;8.702;2023-04-24T01:51:32;14.10;99.90
11055;DHT22;5580;50.106;8.702;2023-04-24T01:53:58;14.10;99.90
11055;DHT22;5580;50.106;8.702;2023-04-24T01:56:24;14.00;99.90
11055;DHT22;5580;50.106;8.702;2023-04-24T01:58:52;14.00;99.90
11055;DHT22;5580;50.106;8.702;2023-04-24T02:01:23;13.90;99.90
11055;DHT22;5580;50.106;8.702;2023-04-24T02:03:49;14.00;99.90
11055;DHT22;5580;50.106;8.702;2023-04-24T02:06:15;13.90;99.90
11055;DHT22;5580;50.106;8.702;2023-04-24T02:08:40;13.90;99.90
11055;DHT22;5580;50.106;8.702;2023-04-24T02:11:06;13.80;99.90
11055;DHT22;5580;50.106;8.702;2023-04-24T02:13:31;13.90;99.90
11055;DHT22;5580;50.106;8.702;2023-04-24T02:15:58;13.90;99.90
11055;DHT22;5580;50.106;8.702;2023-04-24T02:18:24;13.90;99.90
11055;DHT22;5580;50.106;8.702;2023-04-24T02:20:49;13.90;99.90
11055;DHT22;5580;50.106;8.702;2023-04-24T02:23:15;13.90;99.90
11055;DHT22;5580;50.106;8.702;2023-04-24T02:25:41;13.90;99.90
11055;DHT22;5580;50.106;8.702;2023-04-24T02:28:06;13.90;99.90
11055;DHT22;5580;50.106;8.702;2023-04-24T02:30:32;13.90;99.90
11055;DHT22;5580;50.106;8.702;2023-04-24T02:32:57;13.90;99.90
11055;DHT22;5580;50.106;8.702;2023-04-24T02:35:23;13.80;99.90
11055;DHT22;5580;50.106;8.702;2023-04-24T02:37:48;13.80;99.90
11055;DHT22;5580;50.106;8.702;2023-04-24T02:40:14;13.70;99.90
11055;DHT22;5580;50.106;8.702;2023-04-24T02:42:40;13.70;99.90
11055;DHT22;5580;50.106;8.702;2023-04-24T02:45:06;13.70;99.90
11055;DHT22;5580;50.106;8.702;2023-04-24T02:47:32;13.70;99.90
11055;DHT22;5580;50.106;8.702;2023-04-24T02:49:57;13.70;99.90
11055;DHT22;5580;50.106;8.702;2023-04-24T02:52:23;13.70;99.90
11055;DHT22;5580;50.106;8.702;2023-04-24T02:54:48;13.70;99.90
11055;DHT22;5580;50.106;8.702;2023-04-24T02:57:14;13.70;99.90
11055;DHT22;5580;50.106;8.702;2023-04-24T02:59:40;13.70;99.90
11055;DHT22;5580;50.106;8.702;2023-04-24T03:02:05;13.70;99.90
11055;DHT22;5580;50.106;8.702;2023-04-24T03:04:31;13.70;99.90
11055;DHT22;5580;50.106;8.702;2023-04-24T03:06:57;13.70;99.90
11055;DHT22;5580;50.106;8.702;2023-04-24T03:09:23;13.60;99.90
11055;DHT22;5580;50.106;8.702;2023-04-24T03:11:49;13.70;99.90
11055;DHT22;5580;50.106;8.702;2023-04-24T03:14:15;13.70;99.90
11055;DHT22;5580;50.106;8.702;2023-04-24T03:16:41;13.60;99.90
11055;DHT22;5580;50.106;8.702;2023-04-24T03:19:06;13.60;99.90
11055;DHT22;5580;50.106;8.702;2023-04-24T03:21:32;13.60;99.90
11055;DHT22;5580;50.106;8.702;2023-04-24T03:23:58;13.70;99.90
11055;DHT22;5580;50.106;8.702;2023-04-24T03:26:23;13.70;99.90
11055;DHT22;5580;50.106;8.702;2023-04-24T03:28:49;13.60;99.90
11055;DHT22;5580;50.106;8.702;2023-04-24T03:31:14;13.60;99.90
11055;DHT22;5580;50.106;8.702;2023-04-24T03:33:40;13.50;99.90
11055;DHT22;5580;50.106;8.702;2023-04-24T03:36:06;13.50;99.90
11055;DHT22;5580;50.106;8.702;2023-04-24T03:38:32;13.60;99.90
11055;DHT22;5580;50.106;8.702;2023-04-24T03:40:57;13.60;99.90
11055;DHT22;5580;50.106;8.702;2023-04-24T03:43:23;13.70;99.90
11055;DHT22;5580;50.106;8.702;2023-04-24T03:45:49;13.60;99.90
11055;DHT22;5580;50.106;8.702;2023-04-24T03:48:14;13.70;99.90
11055;DHT22;5580;50.106;8.702;2023-04-24T03:50:40;13.60;99.90
11055;DHT22;5580;50.106;8.702;2023-04-24T03:53:05;13.60;99.90
11055;DHT22;5580;50.106;8.702;2023-04-24T03:55:31;13.60;99.90
11055;DHT22;5580;50.106;8.702;2023-04-24T03:57:57;13.60;99.90
11055;DHT22;5580;50.106;8.702;2023-04-24T04:00:23;13.60;99.90
11055;DHT22;5580;50.106;8.702;2023-04-24T04:02:48;13.60;99.90
11055;DHT22;5580;50.106;8.702;2023-04-24T04:05:14;13.60;99.90
11055;DHT22;5580;50.106;8.702;2023-04-24T04:07:40;13.60;99.90
11055;DHT22;5580;50.106;8.702;2023-04-24T04:10:05;13.50;99.90
11055;DHT22;5580;50.106;8.702;2023-04-24T04:12:32;13.60;99.90
11055;DHT22;5580;50.106;8.702;2023-04-24T04:14:58;13.60;99.90
11055;DHT22;5580;50.106;8.702;2023-04-24T04:17:23;13.60;99.90
11055;DHT22;5580;50.106;8.702;2023-04-24T04:19:49;13.50;99.90
11055;DHT22;5580;50.106;8.702;2023-04-24T04:22:14;13.50;99.90
11055;DHT22;5580;50.106;8.702;2023-04-24T04:24:40;13.50;99.90
11055;DHT22;5580;50.106;8.702;2023-04-24T04:27:06;13.40;99.90
11055;DHT22;5580;50.106;8.702;2023-04-24T04:29:32;13.30;99.90
11055;DHT22;5580;50.106;8.702;2023-04-24T04:31:58;13.30;99.90
11055;DHT22;5580;50.106;8.702;2023-04-24T04:34:24;13.20;99.90
11055;DHT22;5580;50.106;8.702;2023-04-24T04:36:49;13.10;99.90
11055;DHT22;5580;50.106;8.702;2023-04-24T04:39:16;13.00;99.90
11055;DHT22;5580;50.106;8.702;2023-04-24T04:41:42;13.10;99.90
11055;DHT22;5580;50.106;8.702;2023-04-24T04:44:07;13.00;99.90
11055;DHT22;5580;50.106;8.702;2023-04-24T04:46:34;13.00;99.90
11055;DHT22;5580;50.106;8.702;2023-04-24T04:49:03;13.00;99.90
11055;DHT22;5580;50.106;8.702;2023-04-24T04:51:28;13.00;99.90
11055;DHT22;5580;50.106;8.702;2023-04-24T04:53:54;13.00;99.90
11055;DHT22;5580;50.106;8.702;2023-04-24T04:56:20;13.00;99.90
11055;DHT22;5580;50.106;8.702;2023-04-24T04:58:46;13.00;99.90
11055;DHT22;5580;50.106;8.702;2023-04-24T05:01:11;13.00;99.90
11055;DHT22;5580;50.106;8.702;2023-04-24T05:03:37;13.00;99.90
11055;DHT22;5580;50.106;8.702;2023-04-24T05:06:02;13.00;99.90
11055;DHT22;5580;50.106;8.702;2023-04-24T05:08:28;13.00;99.90
11055;DHT22;5580;50.106;8.702;2023-04-24T05:10:54;13.10;99.90
11055;DHT22;5580;50.106;8.702;2023-04-24T05:13:20;13.20;99.90
11055;DHT22;5580;50.106;8.702;2023-04-24T05:15:45;13.30;99.90
11055;DHT22;5580;50.106;8.702;2023-04-24T05:18:11;13.40;99.90
11055;DHT22;5580;50.106;8.702;2023-04-24T05:20:37;13.40;99.90
11055;DHT22;5580;50.106;8.702;2023-04-24T05:23:02;13.50;99.90
11055;DHT22;5580;50.106;8.702;2023-04-24T05:25:28;13.70;99.90
11055;DHT22;5580;50.106;8.702;2023-04-24T05:27:53;13.80;99.90
11055;DHT22;5580;50.106;8.702;2023-04-24T05:30:19;13.90;99.90
11055;DHT22;5580;50.106;8.702;2023-04-24T05:32:45;14.00;99.90
11055;DHT22;5580;50.106;8.702;2023-04-24T05:35:11;14.00;99.90
11055;DHT22;5580;50.106;8.702;2023-04-24T05:37:37;14.20;99.90
11055;DHT22;5580;50.106;8.702;2023-04-24T05:40:03;14.30;99.90
11055;DHT22;5580;50.106;8.702;2023-04-24T05:42:30;14.20;99.90
11055;DHT22;5580;50.106;8.702;2023-04-24T05:44:56;14.30;99.90
11055;DHT22;5580;50.106;8.702;2023-04-24T05:47:22;14.20;99.90
11055;DHT22;5580;50.106;8.702;2023-04-24T05:49:48;14.10;99.90
11055;DHT22;5580;50.106;8.702;2023-04-24T05:52:13;14.10;99.90
11055;DHT22;5580;50.106;8.702;2023-04-24T05:54:39;13.90;99.90
11055;DHT22;5580;50.106;8.702;2023-04-24T05:57:05;13.80;99.90
11055;DHT22;5580;50.106;8.702;2023-04-24T05:59:35;13.80;99.90
11055;DHT22;5580;50.106;8.702;2023-04-24T06:02:00;13.90;99.90
11055;DHT22;5580;50.106;8.702;2023-04-24T06:04:26;14.00;99.90
11055;DHT22;5580;50.106;8.702;2023-04-24T06:06:51;14.00;99.90
11055;DHT22;5580;50.106;8.702;2023-04-24T06:09:21;14.00;99.90
11055;DHT22;5580;50.106;8.702;2023-04-24T06:11:47;14.00;99.90
11055;DHT22;5580;50.106;8.702;2023-04-24T06:14:13;13.90;99.90
11055;DHT22;5580;50.106;8.702;2023-04-24T06:16:41;13.80;99.90
11055;DHT22;5580;50.106;8.702;2023-04-24T06:19:07;13.70;99.90
11055;DHT22;5580;50.106;8.702;2023-04-24T06:21:33;13.80;99.90
11055;DHT22;5580;50.106;8.702;2023-04-24T06:23:58;13.70;99.90
11055;DHT22;5580;50.106;8.702;2023-04-24T06:26:24;13.70;99.90
11055;DHT22;5580;50.106;8.702;2023-04-24T06:28:52;13.70;99.90
11055;DHT22;5580;50.106;8.702;2023-04-24T06:31:19;13.60;99.90
11055;DHT22;5580;50.106;8.702;2023-04-24T06:33:45;13.60;99.90
11055;DHT22;5580;50.106;8.702;2023-04-24T06:36:11;13.60;99.90
11055;DHT22;5580;50.106;8.702;2023-04-24T06:38:37;13.60;99.90
11055;DHT22;5580;50.106;8.702;2023-04-24T06:41:02;13.60;99.90
11055;DHT22;5580;50.106;8.702;2023-04-24T06:43:30;13.60;99.90
11055;DHT22;5580;50.106;8.702;2023-04-24T06:45:57;13.60;99.90
11055;DHT22;5580;50.106;8.702;2023-04-24T06:48:23;13.60;99.90
11055;DHT22;5580;50.106;8.702;2023-04-24T06:50:49;13.60;99.90
11055;DHT22;5580;50.106;8.702;2023-04-24T06:53:15;13.50;99.90
11055;DHT22;5580;50.106;8.702;2023-04-24T06:55:41;13.40;99.90
11055;DHT22;5580;50.106;8.702;2023-04-24T06:58:07;13.40;99.90
11055;DHT22;5580;50.106;8.702;2023-04-24T07:00:33;13.30;99.90
11055;DHT22;5580;50.106;8.702;2023-04-24T07:02:58;13.40;99.90
11055;DHT22;5580;50.106;8.702;2023-04-24T07:05:24;13.40;99.90
11055;DHT22;5580;50.106;8.702;2023-04-24T07:07:49;13.20;99.90
11055;DHT22;5580;50.106;8.702;2023-04-24T07:10:17;13.10;99.90
11055;DHT22;5580;50.106;8.702;2023-04-24T07:12:43;13.10;99.90
11055;DHT22;5580;50.106;8.702;2023-04-24T07:15:09;13.00;99.90
11055;DHT22;5580;50.106;8.702;2023-04-24T07:17:35;13.00;99.90
11055;DHT22;5580;50.106;8.702;2023-04-24T07:20:04;13.00;99.90
11055;DHT22;5580;50.106;8.702;2023-04-24T07:22:29;13.00;99.90
11055;DHT22;5580;50.106;8.702;2023-04-24T07:24:55;13.10;99.90
11055;DHT22;5580;50.106;8.702;2023-04-24T07:27:21;13.00;99.90
11055;DHT22;5580;50.106;8.702;2023-04-24T07:29:46;13.10;99.90
11055;DHT22;5580;50.106;8.702;2023-04-24T07:32:12;13.10;99.90
11055;DHT22;5580;50.106;8.702;2023-04-24T07:34:38;13.10;99.90
11055;DHT22;5580;50.106;8.702;2023-04-24T07:37:03;13.10;99.90
11055;DHT22;5580;50.106;8.702;2023-04-24T07:39:29;13.10;99.90
11055;DHT22;5580;50.106;8.702;2023-04-24T07:41:55;13.10;99.90
11055;DHT22;5580;50.106;8.702;2023-04-24T07:44:20;13.20;99.90
11055;DHT22;5580;50.106;8.702;2023-04-24T07:46:46;13.30;99.90
11055;DHT22;5580;50.106;8.702;2023-04-24T07:49:12;13.40;99.90
11055;DHT22;5580;50.106;8.702;2023-04-24T07:51:37;13.70;99.90
11055;DHT22;5580;50.106;8.702;2023-04-24T07:54:04;13.90;99.90
11055;DHT22;5580;50.106;8.702;2023-04-24T07:56:31;14.10;99.90
11055;DHT22;5580;50.106;8.702;2023-04-24T07:58:57;14.20;99.90
11055;DHT22;5580;50.106;8.702;2023-04-24T08:01:22;14.20;99.90
11055;DHT22;5580;50.106;8.702;2023-04-24T08:03:48;14.30;99.90
11055;DHT22;5580;50.106;8.702;2023-04-24T08:06:14;14.30;99.90
11055;DHT22;5580;50.106;8.702;2023-04-24T08:08:39;14.20;99.90
11055;DHT22;5580;50.106;8.702;2023-04-24T08:11:05;14.10;99.90
11055;DHT22;5580;50.106;8.702;2023-04-24T08:13:30;13.90;99.90
11055;DHT22;5580;50.106;8.702;2023-04-24T08:15:57;13.90;99.90
11055;DHT22;5580;50.106;8.702;2023-04-24T08:18:22;13.90;99.90
11055;DHT22;5580;50.106;8.702;2023-04-24T08:20:48;14.10;99.90
11055;DHT22;5580;50.106;8.702;2023-04-24T08:23:14;14.20;99.90
11055;DHT22;5580;50.106;8.702;2023-04-24T08:25:39;14.10;99.90
11055;DHT22;5580;50.106;8.702;2023-04-24T08:28:06;14.10;99.90
11055;DHT22;5580;50.106;8.702;2023-04-24T08:30:32;14.10;99.90
11055;DHT22;5580;50.106;8.702;2023-04-24T08:32:57;14.00;99.90
11055;DHT22;5580;50.106;8.702;2023-04-24T08:35:23;14.00;99.90
11055;DHT22;5580;50.106;8.702;2023-04-24T08:37:49;14.10;99.90
11055;DHT22;5580;50.106;8.702;2023-04-24T08:40:16;14.20;99.90
11055;DHT22;5580;50.106;8.702;2023-04-24T08:42:44;14.30;99.90
11055;DHT22;5580;50.106;8.702;2023-04-24T08:45:12;14.40;99.90
11055;DHT22;5580;50.106;8.702;2023-04-24T08:47:41;14.50;99.90
11055;DHT22;5580;50.106;8.702;2023-04-24T08:50:08;14.60;99.90
11055;DHT22;5580;50.106;8.702;2023-04-24T08:52:35;14.60;99.90
11055;DHT22;5580;50.106;8.702;2023-04-24T08:55:01;14.50;99.90
11055;DHT22;5580;50.106;8.702;2023-04-24T08:57:27;14.40;99.90
11055;DHT22;5580;50.106;8.702;2023-04-24T08:59:54;14.40;99.90
11055;DHT22;5580;50.106;8.702;2023-04-24T09:02:20;14.40;99.90
11055;DHT22;5580;50.106;8.702;2023-04-24T09:04:47;14.30;99.90
11055;DHT22;5580;50.106;8.702;2023-04-24T09:07:14;14.30;99.90
11055;DHT22;5580;50.106;8.702;2023-04-24T09:09:42;14.20;99.90
11055;DHT22;5580;50.106;8.702;2023-04-24T09:12:07;14.10;99.90
11055;DHT22;5580;50.106;8.702;2023-04-24T09:14:35;14.00;99.90
11055;DHT22;5580;50.106;8.702;2023-04-24T09:17:03;13.90;99.90
11055;DHT22;5580;50.106;8.702;2023-04-24T09:19:29;13.80;99.90
11055;DHT22;5580;50.106;8.702;2023-04-24T09:21:55;13.70;99.90
11055;DHT22;5580;50.106;8.702;2023-04-24T09:24:21;13.60;99.90
11055;DHT22;5580;50.106;8.702;2023-04-24T09:26:57;13.60;99.90
11055;DHT22;5580;50.106;8.702;2023-04-24T09:29:24;13.70;99.90
11055;DHT22;5580;50.106;8.702;2023-04-24T09:31:50;13.60;99.90
11055;DHT22;5580;50.106;8.702;2023-04-24T09:34:21;13.60;99.90
11055;DHT22;5580;50.106;8.702;2023-04-24T09:36:47;13.60;99.90
11055;DHT22;5580;50.106;8.702;2023-04-24T09:39:14;13.60;99.90
11055;DHT22;5580;50.106;8.702;2023-04-24T09:44:14;13.50;99.90
11055;DHT22;5580;50.106;8.702;2023-04-24T09:46:45;13.50;99.90
11055;DHT22;5580;50.106;8.702;2023-04-24T09:49:15;13.50;99.90
11055;DHT22;5580;50.106;8.702;2023-04-24T09:51:42;13.60;99.90
11055;DHT22;5580;50.106;8.702;2023-04-24T09:54:15;13.60;99.90
11055;DHT22;5580;50.106;8.702;2023-04-24T09:56:45;13.60;99.90
11055;DHT22;5580;50.106;8.702;2023-04-24T09:59:12;13.60;99.90
11055;DHT22;5580;50.106;8.702;2023-04-24T10:01:37;13.50;99.90
11055;DHT22;5580;50.106;8.702;2023-04-24T10:04:18;13.50;99.90
11055;DHT22;5580;50.106;8.702;2023-04-24T10:06:45;13.40;99.90
11055;DHT22;5580;50.106;8.702;2023-04-24T10:09:10;13.40;99.90
11055;DHT22;5580;50.106;8.702;2023-04-24T10:11:41;13.40;99.90
11055;DHT22;5580;50.106;8.702;2023-04-24T10:14:10;13.40;99.90
11055;DHT22;5580;50.106;8.702;2023-04-24T10:16:36;13.40;99.90
11055;DHT22;5580;50.106;8.702;2023-04-24T10:19:03;13.40;99.90
11055;DHT22;5580;50.106;8.702;2023-04-24T10:21:28;13.50;99.90
11055;DHT22;5580;50.106;8.702;2023-04-24T10:23:55;13.40;99.90
11055;DHT22;5580;50.106;8.702;2023-04-24T10:26:21;13.40;99.90
11055;DHT22;5580;50.106;8.702;2023-04-24T10:28:48;13.40;99.90
11055;DHT22;5580;50.106;8.702;2023-04-24T10:31:14;13.40;99.90
11055;DHT22;5580;50.106;8.702;2023-04-24T10:33:41;13.30;99.90
11055;DHT22;5580;50.106;8.702;2023-04-24T10:36:10;13.30;99.90
11055;DHT22;5580;50.106;8.702;2023-04-24T10:38:37;13.30;99.90
11055;DHT22;5580;50.106;8.702;2023-04-24T10:41:12;13.20;99.90
11055;DHT22;5580;50.106;8.702;2023-04-24T10:44:03;13.10;99.90
11055;DHT22;5580;50.106;8.702;2023-04-24T10:46:30;13.00;99.90
11055;DHT22;5580;50.106;8.702;2023-04-24T10:48:56;13.10;99.90
11055;DHT22;5580;50.106;8.702;2023-04-24T10:51:23;13.10;99.90
11055;DHT22;5580;50.106;8.702;2023-04-24T10:53:52;13.10;99.90
11055;DHT22;5580;50.106;8.702;2023-04-24T10:56:17;13.10;99.90
11055;DHT22;5580;50.106;8.702;2023-04-24T10:58:45;13.00;99.90
11055;DHT22;5580;50.106;8.702;2023-04-24T11:01:30;13.00;99.90
11055;DHT22;5580;50.106;8.702;2023-04-24T11:03:58;12.90;99.90
11055;DHT22;5580;50.106;8.702;2023-04-24T11:06:35;12.90;99.90
11055;DHT22;5580;50.106;8.702;2023-04-24T11:09:09;13.00;99.90
11055;DHT22;5580;50.106;8.702;2023-04-24T11:11:36;13.10;99.90
11055;DHT22;5580;50.106;8.702;2023-04-24T11:14:05;13.30;99.90
11055;DHT22;5580;50.106;8.702;2023-04-24T11:16:44;13.40;99.90
11055;DHT22;5580;50.106;8.702;2023-04-24T11:19:22;13.50;99.90
11055;DHT22;5580;50.106;8.702;2023-04-24T11:22:04;13.50;99.90
11055;DHT22;5580;50.106;8.702;2023-04-24T11:34:48;13.80;99.90
11055;DHT22;5580;50.106;8.702;2023-04-24T11:37:14;13.90;99.90
11055;DHT22;5580;50.106;8.702;2023-04-24T11:39:40;13.90;99.90
11055;DHT22;5580;50.106;8.702;2023-04-24T11:42:07;13.90;99.90
11055;DHT22;5580;50.106;8.702;2023-04-24T11:44:34;13.90;99.90
11055;DHT22;5580;50.106;8.702;2023-04-24T11:47:05;13.90;99.90
11055;DHT22;5580;50.106;8.702;2023-04-24T11:49:32;14.00;99.90
11055;DHT22;5580;50.106;8.702;2023-04-24T11:51:59;14.00;99.90
11055;DHT22;5580;50.106;8.702;2023-04-24T11:54:25;14.00;99.90
11055;DHT22;5580;50.106;8.702;2023-04-24T11:56:51;14.00;99.90
11055;DHT22;5580;50.106;8.702;2023-04-24T11:59:17;14.10;99.90
11055;DHT22;5580;50.106;8.702;2023-04-24T12:01:46;14.20;99.90
11055;DHT22;5580;50.106;8.702;2023-04-24T12:04:12;14.20;99.90
11055;DHT22;5580;50.106;8.702;2023-04-24T12:06:38;14.30;99.90
11055;DHT22;5580;50.106;8.702;2023-04-24T12:09:04;14.30;99.90
11055;DHT22;5580;50.106;8.702;2023-04-24T12:11:30;14.30;99.90
11055;DHT22;5580;50.106;8.702;2023-04-24T12:13:55;14.30;99.90
11055;DHT22;5580;50.106;8.702;2023-04-24T12:16:21;14.20;99.90
11055;DHT22;5580;50.106;8.702;2023-04-24T12:18:47;14.30;99.90
11055;DHT22;5580;50.106;8.702;2023-04-24T12:21:30;14.40;99.90
11055;DHT22;5580;50.106;8.702;2023-04-24T12:23:57;14.40;99.90
11055;DHT22;5580;50.106;8.702;2023-04-24T12:26:23;14.40;99.90
11055;DHT22;5580;50.106;8.702;2023-04-24T12:28:49;14.30;99.90
11055;DHT22;5580;50.106;8.702;2023-04-24T12:31:16;14.20;99.90
11055;DHT22;5580;50.106;8.702;2023-04-24T12:33:42;14.00;99.90
11055;DHT22;5580;50.106;8.702;2023-04-24T12:36:10;13.80;99.90
11055;DHT22;5580;50.106;8.702;2023-04-24T12:38:37;13.70;99.90
11055;DHT22;5580;50.106;8.702;2023-04-24T12:41:08;13.60;99.90
11055;DHT22;5580;50.106;8.702;2023-04-24T12:43:34;13.60;99.90
11055;DHT22;5580;50.106;8.702;2023-04-24T12:46:00;13.50;99.90
11055;DHT22;5580;50.106;8.702;2023-04-24T12:48:26;13.60;99.90
11055;DHT22;5580;50.106;8.702;2023-04-24T12:50:52;13.70;99.90
11055;DHT22;5580;50.106;8.702;2023-04-24T12:53:18;13.80;99.90
11055;DHT22;5580;50.106;8.702;2023-04-24T12:55:44;13.80;99.90
11055;DHT22;5580;50.106;8.702;2023-04-24T12:58:10;13.90;99.90
11055;DHT22;5580;50.106;8.702;2023-04-24T13:00:36;13.90;99.90
11055;DHT22;5580;50.106;8.702;2023-04-24T13:03:02;13.90;99.90
11055;DHT22;5580;50.106;8.702;2023-04-24T13:05:28;14.00;99.90
11055;DHT22;5580;50.106;8.702;2023-04-24T13:07:53;14.10;99.90
11055;DHT22;5580;50.106;8.702;2023-04-24T13:10:19;14.20;99.90
11055;DHT22;5580;50.106;8.702;2023-04-24T13:12:45;14.20;99.90
11055;DHT22;5580;50.106;8.702;2023-04-24T13:15:11;14.30;99.90
11055;DHT22;5580;50.106;8.702;2023-04-24T13:17:37;14.20;99.90
11055;DHT22;5580;50.106;8.702;2023-04-24T13:20:03;14.40;99.90
11055;DHT22;5580;50.106;8.702;2023-04-24T13:22:28;14.50;99.90
11055;DHT22;5580;50.106;8.702;2023-04-24T13:24:54;14.60;99.90
11055;DHT22;5580;50.106;8.702;2023-04-24T13:27:20;14.60;99.90
11055;DHT22;5580;50.106;8.702;2023-04-24T13:29:45;14.60;99.90
11055;DHT22;5580;50.106;8.702;2023-04-24T13:32:11;14.60;99.90
11055;DHT22;5580;50.106;8.702;2023-04-24T13:34:37;14.70;99.90
11055;DHT22;5580;50.106;8.702;2023-04-24T13:37:03;14.80;99.90
11055;DHT22;5580;50.106;8.702;2023-04-24T13:39:29;14.80;99.90
11055;DHT22;5580;50.106;8.702;2023-04-24T13:41:55;14.80;99.90
11055;DHT22;5580;50.106;8.702;2023-04-24T13:44:22;14.70;99.90
11055;DHT22;5580;50.106;8.702;2023-04-24T13:46:51;14.70;99.90
11055;DHT22;5580;50.106;8.702;2023-04-24T13:49:18;14.60;99.90
11055;DHT22;5580;50.106;8.702;2023-04-24T13:51:44;14.60;99.90
11055;DHT22;5580;50.106;8.702;2023-04-24T13:54:11;14.60;99.90
11055;DHT22;5580;50.106;8.702;2023-04-24T13:56:37;14.60;99.90
11055;DHT22;5580;50.106;8.702;2023-04-24T13:59:02;14.60;99.90
11055;DHT22;5580;50.106;8.702;2023-04-24T14:01:28;14.50;99.90
11055;DHT22;5580;50.106;8.702;2023-04-24T14:03:55;14.50;99.90
11055;DHT22;5580;50.106;8.702;2023-04-24T14:06:21;14.50;99.90
11055;DHT22;5580;50.106;8.702;2023-04-24T14:08:48;14.50;99.90
11055;DHT22;5580;50.106;8.702;2023-04-24T14:11:14;14.50;99.90
11055;DHT22;5580;50.106;8.702;2023-04-24T14:13:43;14.50;99.90
11055;DHT22;5580;50.106;8.702;2023-04-24T14:16:09;14.50;99.90
11055;DHT22;5580;50.106;8.702;2023-04-24T14:18:35;14.50;99.90
11055;DHT22;5580;50.106;8.702;2023-04-24T14:21:02;14.50;99.90
11055;DHT22;5580;50.106;8.702;2023-04-24T14:23:28;14.60;99.90
11055;DHT22;5580;50.106;8.702;2023-04-24T14:25:53;14.60;99.90
11055;DHT22;5580;50.106;8.702;2023-04-24T14:28:19;14.60;99.90
11055;DHT22;5580;50.106;8.702;2023-04-24T14:30:46;14.60;99.90
11055;DHT22;5580;50.106;8.702;2023-04-24T14:33:12;14.50;99.90
11055;DHT22;5580;50.106;8.702;2023-04-24T14:35:38;14.50;99.90
11055;DHT22;5580;50.106;8.702;2023-04-24T14:38:05;14.50;99.90
11055;DHT22;5580;50.106;8.702;2023-04-24T14:40:30;14.50;99.90
11055;DHT22;5580;50.106;8.702;2023-04-24T14:42:57;14.50;99.90
11055;DHT22;5580;50.106;8.702;2023-04-24T14:45:24;14.50;99.90
11055;DHT22;5580;50.106;8.702;2023-04-24T14:47:49;14.50;99.90
11055;DHT22;5580;50.106;8.702;2023-04-24T14:50:15;14.60;99.90
11055;DHT22;5580;50.106;8.702;2023-04-24T14:52:40;14.60;99.90
11055;DHT22;5580;50.106;8.702;2023-04-24T14:55:06;14.50;99.90
11055;DHT22;5580;50.106;8.702;2023-04-24T14:57:33;14.40;99.90
11055;DHT22;5580;50.106;8.702;2023-04-24T14:59:59;14.50;99.90
11055;DHT22;5580;50.106;8.702;2023-04-24T15:02:24;14.50;99.90
11055;DHT22;5580;50.106;8.702;2023-04-24T15:04:50;14.40;99.90
11055;DHT22;5580;50.106;8.702;2023-04-24T15:07:16;14.30;99.90
11055;DHT22;5580;50.106;8.702;2023-04-24T15:09:41;14.40;99.90
11055;DHT22;5580;50.106;8.702;2023-04-24T15:12:12;14.40;99.90
11055;DHT22;5580;50.106;8.702;2023-04-24T15:14:38;14.40;99.90
11055;DHT22;5580;50.106;8.702;2023-04-24T15:17:03;14.40;99.90
11055;DHT22;5580;50.106;8.702;2023-04-24T15:19:29;14.50;99.90
11055;DHT22;5580;50.106;8.702;2023-04-24T15:21:54;14.50;99.90
11055;DHT22;5580;50.106;8.702;2023-04-24T15:24:20;14.40;99.90
11055;DHT22;5580;50.106;8.702;2023-04-24T15:26:45;14.40;99.90
11055;DHT22;5580;50.106;8.702;2023-04-24T15:29:11;14.40;99.90
11055;DHT22;5580;50.106;8.702;2023-04-24T15:31:37;14.40;99.90
11055;DHT22;5580;50.106;8.702;2023-04-24T15:34:05;14.40;99.90
11055;DHT22;5580;50.106;8.702;2023-04-24T15:36:31;14.30;99.90
11055;DHT22;5580;50.106;8.702;2023-04-24T15:38:57;14.40;99.90
11055;DHT22;5580;50.106;8.702;2023-04-24T15:41:23;14.40;99.90
11055;DHT22;5580;50.106;8.702;2023-04-24T15:43:48;14.40;99.90
11055;DHT22;5580;50.106;8.702;2023-04-24T15:46:14;14.40;99.90
11055;DHT22;5580;50.106;8.702;2023-04-24T15:48:41;14.40;99.90
11055;DHT22;5580;50.106;8.702;2023-04-24T15:51:07;14.30;99.90
11055;DHT22;5580;50.106;8.702;2023-04-24T15:53:33;14.40;99.90